createdAt,value
2022-12-20T00:01:30.379Z,1.10
2022-12-20T00:04:00.002Z,1.20
2022-12-20T00:06:29.194Z,1.30
2022-12-20T00:08:58.493Z,0.90
2022-12-20T00:11:27.467Z,1.10
2022-12-20T00:13:56.453Z,0.90
2022-12-20T00:16:28.285Z,1.10
2022-12-20T00:18:58.008Z,1.23
2022-12-20T00:21:26.817Z,1.20
2022-12-20T00:23:55.886Z,1.10
2022-12-20T00:26:25.879Z,1.13
2022-12-20T00:28:54.833Z,1.00
2022-12-20T00:31:23.998Z,1.00
2022-12-20T00:33:55.075Z,1.40
2022-12-20T00:36:23.997Z,1.27
2022-12-20T00:38:53.453Z,1.10
2022-12-20T00:41:23.606Z,1.20
2022-12-20T00:43:52.385Z,1.23
2022-12-20T00:46:23.316Z,1.03
2022-12-20T00:48:52.200Z,1.30
2022-12-20T00:51:23.627Z,1.10
2022-12-20T00:53:52.253Z,1.23
2022-12-20T00:56:21.111Z,1.20
2022-12-20T00:58:49.947Z,1.07
2022-12-20T01:01:20.856Z,1.10
2022-12-20T01:03:49.853Z,1.10
2022-12-20T01:06:18.590Z,1.70
2022-12-20T01:08:48.538Z,1.20
2022-12-20T01:11:18.011Z,1.73
2022-12-20T01:13:47.924Z,1.67
2022-12-20T01:16:17.908Z,1.50
2022-12-20T01:18:48.618Z,1.30
2022-12-20T01:21:17.963Z,1.43
2022-12-20T01:23:46.585Z,1.50
2022-12-20T01:26:18.021Z,1.47
2022-12-20T01:28:47.569Z,1.33
2022-12-20T01:31:18.605Z,1.63
2022-12-20T01:33:47.754Z,1.47
2022-12-20T01:36:17.576Z,1.40
2022-12-20T01:38:46.212Z,1.30
2022-12-20T01:41:18.301Z,1.40
2022-12-20T01:43:49.305Z,1.40
2022-12-20T01:46:18.093Z,1.50
2022-12-20T01:48:49.039Z,1.40
2022-12-20T01:51:17.762Z,1.40
2022-12-20T01:53:46.404Z,1.63
2022-12-20T01:56:15.030Z,1.53
2022-12-20T01:58:45.523Z,1.50
2022-12-20T02:01:14.223Z,1.67
2022-12-20T02:03:43.902Z,1.67
2022-12-20T02:06:16.913Z,1.50
2022-12-20T02:08:46.627Z,1.43
2022-12-20T02:11:21.377Z,1.60
2022-12-20T02:13:57.450Z,1.43
2022-12-20T02:16:28.251Z,1.70
2022-12-20T02:19:00.998Z,1.60
2022-12-20T02:21:30.766Z,1.43
2022-12-20T02:24:17.804Z,1.60
2022-12-20T02:26:58.109Z,1.50
2022-12-20T02:29:35.293Z,1.50
2022-12-20T02:32:10.151Z,1.40
2022-12-20T02:34:39.288Z,1.40
2022-12-20T02:37:07.876Z,1.50
2022-12-20T02:39:38.413Z,1.47
2022-12-20T02:42:08.281Z,1.47
2022-12-20T02:45:10.559Z,1.57
2022-12-20T02:47:42.317Z,1.40
2022-12-20T02:50:11.995Z,1.50
2022-12-20T02:52:42.639Z,1.50
2022-12-20T02:55:11.493Z,1.50
2022-12-20T02:57:42.798Z,1.30
2022-12-20T03:00:12.588Z,1.40
2022-12-20T03:03:00.511Z,1.57
2022-12-20T03:05:29.769Z,1.40
2022-12-20T03:07:58.351Z,1.40
2022-12-20T03:10:27.184Z,1.37
2022-12-20T03:12:55.775Z,1.40
2022-12-20T03:15:24.300Z,1.60
2022-12-20T03:17:54.165Z,1.47
2022-12-20T03:20:22.736Z,1.50
2022-12-20T03:22:51.449Z,1.30
2022-12-20T03:25:20.053Z,1.30
2022-12-20T03:27:48.760Z,1.30
2022-12-20T03:30:17.300Z,1.50
2022-12-20T03:32:45.957Z,1.20
2022-12-20T03:35:16.060Z,1.50
2022-12-20T03:37:44.639Z,1.30
2022-12-20T03:40:14.040Z,1.53
2022-12-20T03:42:42.617Z,1.47
2022-12-20T03:45:11.856Z,1.40
2022-12-20T03:47:40.526Z,1.50
2022-12-20T03:50:09.671Z,1.30
2022-12-20T03:52:40.047Z,1.50
2022-12-20T03:55:09.471Z,1.40
2022-12-20T03:57:38.006Z,1.60
2022-12-20T04:00:07.279Z,1.50
2022-12-20T04:02:35.938Z,1.43
2022-12-20T04:05:04.647Z,1.30
2022-12-20T04:07:33.241Z,1.27
2022-12-20T04:10:03.183Z,1.20
2022-12-20T04:12:31.773Z,1.50
2022-12-20T04:15:00.337Z,1.40
2022-12-20T04:17:28.932Z,1.47
2022-12-20T04:19:57.482Z,1.57
2022-12-20T04:22:26.055Z,1.30
2022-12-20T04:24:54.637Z,1.40
2022-12-20T04:27:24.573Z,1.23
2022-12-20T04:29:53.131Z,1.43
2022-12-20T04:32:21.716Z,1.10
2022-12-20T04:34:50.285Z,1.20
2022-12-20T04:37:18.804Z,1.20
2022-12-20T04:39:47.399Z,1.33
2022-12-20T04:42:15.992Z,1.53
2022-12-20T04:44:45.887Z,1.20
2022-12-20T04:47:14.463Z,1.20
2022-12-20T04:49:43.041Z,1.17
2022-12-20T04:52:28.557Z,1.20
2022-12-20T04:54:57.159Z,1.40
2022-12-20T04:57:25.824Z,1.20
2022-12-20T04:59:55.732Z,1.30
2022-12-20T05:02:24.462Z,1.30
2022-12-20T05:04:53.154Z,1.00
2022-12-20T05:07:21.773Z,1.07
2022-12-20T05:09:50.318Z,1.20
2022-12-20T05:12:18.887Z,1.30
2022-12-20T05:14:47.481Z,1.20
2022-12-20T05:17:17.435Z,1.30
2022-12-20T05:19:46.002Z,1.30
2022-12-20T05:22:32.522Z,1.10
2022-12-20T05:25:18.963Z,1.13
2022-12-20T05:27:47.502Z,1.17
2022-12-20T05:30:16.673Z,1.20
2022-12-20T05:32:46.580Z,1.40
2022-12-20T05:35:15.119Z,1.00
2022-12-20T05:37:43.849Z,1.30
2022-12-20T05:40:12.903Z,1.20
2022-12-20T05:42:41.532Z,1.20
2022-12-20T05:45:11.150Z,1.30
2022-12-20T05:47:39.732Z,1.23
2022-12-20T05:50:18.219Z,1.10
2022-12-20T05:52:47.449Z,1.10
2022-12-20T05:55:16.159Z,1.07
2022-12-20T05:57:44.754Z,1.00
2022-12-20T06:00:14.154Z,1.13
2022-12-20T06:02:42.904Z,1.37
2022-12-20T06:05:13.075Z,1.20
2022-12-20T06:07:41.692Z,1.10
2022-12-20T06:10:11.307Z,1.40
2022-12-20T06:12:39.916Z,1.40
2022-12-20T06:15:09.147Z,1.00
2022-12-20T06:17:37.797Z,1.00
2022-12-20T06:20:07.281Z,1.00
2022-12-20T06:22:37.580Z,1.20
2022-12-20T06:25:07.386Z,1.30
2022-12-20T06:27:36.044Z,1.50
2022-12-20T06:30:04.868Z,1.03
2022-12-20T06:32:33.425Z,1.00
2022-12-20T06:35:01.982Z,1.10
2022-12-20T06:37:30.534Z,1.00
2022-12-20T06:40:00.708Z,1.40
2022-12-20T06:42:29.259Z,1.17
2022-12-20T06:44:57.941Z,1.13
2022-12-20T06:47:26.599Z,1.13
2022-12-20T06:49:55.251Z,1.30
2022-12-20T06:52:23.846Z,1.30
2022-12-20T06:54:54.617Z,1.17
2022-12-20T06:57:24.689Z,1.30
2022-12-20T06:59:53.326Z,1.13
2022-12-20T07:02:21.978Z,1.20
2022-12-20T07:04:50.983Z,1.30
2022-12-20T07:07:19.554Z,1.10
2022-12-20T07:09:48.164Z,1.10
2022-12-20T07:12:16.810Z,1.20
2022-12-20T07:14:46.908Z,1.10
2022-12-20T07:17:15.494Z,1.30
2022-12-20T07:19:50.306Z,1.27
2022-12-20T07:22:19.540Z,1.30
2022-12-20T07:24:48.714Z,1.10
2022-12-20T07:27:17.562Z,1.17
2022-12-20T07:29:47.529Z,1.10
2022-12-20T07:32:16.308Z,1.40
2022-12-20T07:34:44.829Z,1.30
2022-12-20T07:37:13.963Z,1.07
2022-12-20T07:39:42.709Z,1.30
2022-12-20T07:42:12.727Z,1.20
2022-12-20T07:44:41.401Z,1.30
2022-12-20T07:47:11.381Z,1.20
2022-12-20T07:49:40.068Z,1.20
2022-12-20T07:52:09.425Z,1.00
2022-12-20T07:54:39.832Z,1.13
2022-12-20T07:57:18.001Z,1.30
2022-12-20T07:59:48.980Z,1.40
2022-12-20T08:02:20.577Z,1.30
2022-12-20T08:04:50.625Z,1.00
2022-12-20T08:07:19.205Z,1.50
2022-12-20T08:09:48.490Z,0.97
2022-12-20T08:12:18.302Z,1.10
2022-12-20T08:14:47.344Z,1.23
2022-12-20T08:17:15.914Z,1.00
2022-12-20T08:19:45.799Z,1.13
2022-12-20T08:22:14.388Z,1.10
2022-12-20T08:24:42.916Z,1.00
2022-12-20T08:27:11.497Z,1.00
2022-12-20T08:29:40.075Z,1.20
2022-12-20T08:32:08.639Z,1.23
2022-12-20T08:34:37.419Z,1.00
2022-12-20T08:37:14.259Z,1.30
2022-12-20T08:39:43.516Z,1.23
2022-12-20T08:42:12.103Z,1.30
2022-12-20T08:44:40.698Z,1.20
2022-12-20T08:47:09.310Z,0.90
2022-12-20T08:49:42.400Z,1.30
2022-12-20T08:52:15.691Z,1.10
2022-12-20T08:54:44.363Z,1.00
2022-12-20T08:57:12.940Z,1.10
2022-12-20T08:59:41.465Z,1.00
2022-12-20T09:02:10.321Z,1.20
2022-12-20T09:04:39.021Z,1.40
2022-12-20T09:07:07.606Z,1.00
2022-12-20T09:09:37.477Z,1.00
2022-12-20T09:12:07.610Z,1.27
2022-12-20T09:14:36.219Z,1.20
2022-12-20T09:17:04.834Z,1.10
2022-12-20T09:19:33.487Z,1.07
2022-12-20T09:22:02.041Z,1.20
2022-12-20T09:24:30.672Z,1.10
2022-12-20T09:27:00.956Z,1.20
2022-12-20T09:29:35.312Z,1.00
2022-12-20T09:32:04.415Z,1.00
2022-12-20T09:34:33.066Z,1.17
2022-12-20T09:37:01.596Z,1.50
2022-12-20T09:39:30.305Z,0.97
2022-12-20T09:41:59.198Z,1.10
2022-12-20T09:44:30.924Z,1.10
2022-12-20T09:47:08.214Z,1.10
2022-12-20T09:49:41.848Z,1.20
2022-12-20T09:52:21.551Z,1.23
2022-12-20T09:54:53.493Z,1.00
2022-12-20T09:57:28.267Z,1.30
2022-12-20T09:59:59.309Z,1.30
2022-12-20T10:02:57.197Z,1.10
2022-12-20T10:05:18.986Z,1.20
2022-12-20T10:07:50.112Z,1.17
2022-12-20T10:10:28.541Z,1.20
2022-12-20T10:13:03.277Z,0.97
2022-12-20T10:15:36.681Z,1.10
2022-12-20T10:18:20.558Z,1.30
2022-12-20T10:20:57.065Z,1.57
2022-12-20T10:23:33.400Z,1.13
2022-12-20T10:26:02.899Z,1.37
2022-12-20T10:28:32.864Z,1.10
2022-12-20T10:31:04.405Z,1.30
2022-12-20T10:33:33.381Z,1.20
2022-12-20T10:36:16.826Z,1.00
2022-12-20T10:38:46.037Z,1.33
2022-12-20T10:41:22.781Z,1.13
2022-12-20T10:43:54.370Z,1.30
2022-12-20T10:46:25.165Z,1.30
2022-12-20T10:48:53.716Z,1.10
2022-12-20T10:51:23.157Z,1.30
2022-12-20T10:53:53.498Z,1.03
2022-12-20T10:56:23.801Z,1.10
2022-12-20T10:58:54.768Z,1.03
2022-12-20T11:01:27.170Z,1.00
2022-12-20T11:03:57.681Z,1.30
2022-12-20T11:06:27.655Z,1.07
2022-12-20T11:09:14.534Z,1.00
2022-12-20T11:11:58.730Z,1.00
2022-12-20T11:14:31.424Z,1.07
2022-12-20T11:17:08.902Z,1.20
2022-12-20T11:19:46.941Z,1.07
2022-12-20T11:22:20.188Z,1.30
2022-12-20T11:24:52.832Z,1.10
2022-12-20T11:27:27.175Z,1.10
2022-12-20T11:30:05.242Z,1.10
2022-12-20T11:32:48.593Z,1.50
2022-12-20T11:35:20.520Z,1.30
2022-12-20T11:37:54.383Z,1.13
2022-12-20T11:40:29.059Z,1.10
2022-12-20T11:43:05.541Z,1.20
2022-12-20T11:45:39.540Z,1.17
2022-12-20T11:48:20.916Z,1.30
2022-12-20T11:50:53.402Z,1.10
2022-12-20T11:53:24.817Z,1.07
2022-12-20T11:55:56.296Z,1.40
2022-12-20T11:58:27.468Z,1.17
2022-12-20T12:00:58.195Z,1.50
2022-12-20T12:03:32.058Z,1.40
2022-12-20T12:06:02.245Z,1.47
2022-12-20T12:08:33.886Z,1.37
2022-12-20T12:11:06.013Z,1.30
2022-12-20T12:13:36.995Z,1.10
2022-12-20T12:16:08.327Z,1.20
2022-12-20T12:18:38.611Z,1.10
2022-12-20T12:21:10.381Z,1.07
2022-12-20T12:23:44.027Z,1.10
2022-12-20T12:26:14.087Z,1.30
2022-12-20T12:28:42.733Z,1.13
2022-12-20T12:31:13.316Z,1.30
2022-12-20T12:33:45.288Z,1.10
2022-12-20T12:36:20.402Z,1.20
2022-12-20T12:39:02.418Z,1.40
2022-12-20T12:41:36.601Z,1.10
2022-12-20T12:44:24.269Z,1.03
2022-12-20T12:46:56.505Z,1.20
2022-12-20T12:49:29.702Z,1.50
2022-12-20T12:52:00.338Z,1.20
2022-12-20T12:54:30.396Z,1.10
2022-12-20T12:57:03.180Z,1.10
2022-12-20T12:59:52.671Z,1.13
2022-12-20T13:02:37.807Z,1.40
2022-12-20T13:05:26.391Z,1.33
2022-12-20T13:07:56.611Z,1.33
2022-12-20T13:10:43.679Z,1.10
2022-12-20T13:13:16.537Z,1.30
2022-12-20T13:15:48.963Z,1.20
2022-12-20T13:18:27.455Z,1.20
2022-12-20T13:21:14.737Z,1.27
2022-12-20T13:23:44.703Z,1.33
2022-12-20T13:26:31.660Z,1.20
2022-12-20T13:29:19.675Z,0.93
2022-12-20T13:31:54.041Z,1.10
2022-12-20T13:34:39.647Z,1.30
2022-12-20T13:37:23.106Z,1.20
2022-12-20T13:39:53.147Z,1.60
2022-12-20T13:42:30.840Z,1.80
2022-12-20T13:45:03.406Z,1.40
2022-12-20T13:47:38.732Z,1.20
2022-12-20T13:50:24.927Z,1.60
2022-12-20T13:52:54.630Z,1.20
2022-12-20T13:55:32.936Z,1.70
2022-12-20T13:58:06.289Z,1.47
2022-12-20T14:00:35.310Z,1.43
2022-12-20T14:03:04.050Z,1.23
2022-12-20T14:05:38.141Z,1.57
2022-12-20T14:08:08.154Z,1.40
2022-12-20T14:10:38.207Z,1.30
2022-12-20T14:13:20.677Z,1.50
2022-12-20T14:15:49.856Z,1.10
2022-12-20T14:18:19.985Z,1.30
2022-12-20T14:20:50.847Z,1.40
2022-12-20T14:23:21.254Z,1.50
2022-12-20T14:25:52.560Z,1.00
2022-12-20T14:28:30.937Z,1.30
2022-12-20T14:31:01.161Z,1.30
2022-12-20T14:33:35.778Z,1.13
2022-12-20T14:36:11.807Z,1.40
2022-12-20T14:38:41.023Z,1.30
2022-12-20T14:41:24.520Z,1.40
2022-12-20T14:43:57.968Z,1.67
2022-12-20T14:46:26.721Z,1.40
2022-12-20T14:49:07.099Z,1.50
2022-12-20T14:51:36.149Z,1.20
2022-12-20T14:54:04.966Z,1.13
2022-12-20T14:56:33.677Z,1.20
2022-12-20T14:59:15.750Z,1.50
2022-12-20T15:01:44.977Z,1.30
2022-12-20T15:04:26.964Z,1.50
2022-12-20T15:06:55.978Z,1.30
2022-12-20T15:09:24.622Z,1.43
2022-12-20T15:11:53.523Z,1.70
2022-12-20T15:14:32.897Z,1.60
2022-12-20T15:17:01.522Z,1.70
2022-12-20T15:19:31.347Z,1.33
2022-12-20T15:21:59.929Z,1.50
2022-12-20T15:24:29.767Z,1.30
2022-12-20T15:26:58.320Z,1.60
2022-12-20T15:29:28.005Z,1.40
2022-12-20T15:32:01.719Z,1.33
2022-12-20T15:34:31.880Z,1.77
2022-12-20T15:37:02.370Z,1.40
2022-12-20T15:39:31.395Z,1.30
2022-12-20T15:42:01.685Z,1.40
2022-12-20T15:44:31.048Z,1.40
2022-12-20T15:47:01.192Z,1.20
2022-12-20T15:49:31.784Z,1.70
2022-12-20T15:52:00.586Z,1.50
2022-12-20T15:54:30.926Z,1.70
2022-12-20T15:57:00.300Z,1.30
2022-12-20T16:02:22.704Z,1.50
2022-12-20T16:04:51.513Z,1.30
2022-12-20T16:07:20.361Z,1.43
2022-12-20T16:09:48.992Z,1.40
2022-12-20T16:12:18.407Z,1.43
2022-12-20T16:14:47.360Z,1.20
2022-12-20T16:17:16.386Z,1.20
2022-12-20T16:19:46.329Z,1.30
2022-12-20T16:22:17.492Z,1.30
2022-12-20T16:24:46.399Z,1.33
2022-12-20T16:27:15.043Z,1.50
2022-12-20T16:29:43.634Z,1.40
2022-12-20T16:32:14.870Z,1.40
2022-12-20T16:34:43.502Z,1.50
2022-12-20T16:37:13.714Z,1.50
2022-12-20T16:39:42.570Z,1.23
2022-12-20T16:42:14.570Z,1.37
2022-12-20T16:44:45.512Z,1.17
2022-12-20T16:47:15.087Z,1.47
2022-12-20T16:49:51.697Z,1.17
2022-12-20T16:52:23.301Z,1.50
2022-12-20T16:54:52.006Z,1.23
2022-12-20T16:57:21.453Z,1.30
2022-12-20T16:59:50.342Z,1.20
2022-12-20T17:02:23.943Z,1.10
2022-12-20T17:04:52.907Z,1.17
2022-12-20T17:07:22.852Z,1.30
2022-12-20T17:12:37.733Z,1.30
2022-12-20T17:15:06.733Z,1.80
2022-12-20T17:17:35.276Z,1.77
2022-12-20T17:20:03.836Z,1.40
2022-12-20T17:25:21.373Z,1.40
2022-12-20T17:27:50.177Z,1.37
2022-12-20T17:30:19.197Z,1.30
2022-12-20T17:32:47.764Z,1.77
2022-12-20T17:35:20.671Z,1.40
2022-12-20T17:37:52.253Z,1.43
2022-12-20T17:40:20.953Z,1.27
2022-12-20T17:42:49.958Z,1.40
2022-12-20T17:45:22.301Z,1.90
2022-12-20T17:47:50.882Z,1.50
2022-12-20T17:50:19.731Z,1.23
2022-12-20T17:52:48.408Z,1.30
2022-12-20T17:55:22.780Z,1.50
2022-12-20T17:57:51.750Z,1.40
2022-12-20T18:00:23.988Z,1.43
2022-12-20T18:02:53.764Z,1.50
2022-12-20T18:05:23.193Z,1.40
2022-12-20T18:07:52.681Z,1.40
2022-12-20T18:10:23.359Z,1.53
2022-12-20T18:12:52.456Z,1.37
2022-12-20T18:15:21.127Z,1.57
2022-12-20T18:17:49.725Z,1.40
2022-12-20T18:20:18.335Z,1.40
2022-12-20T18:22:47.024Z,1.50
2022-12-20T18:25:18.215Z,1.70
2022-12-20T18:27:48.395Z,1.57
2022-12-20T18:30:17.813Z,1.53
2022-12-20T18:32:46.462Z,1.60
2022-12-20T18:35:15.136Z,1.40
2022-12-20T18:37:44.303Z,1.50
2022-12-20T18:40:13.096Z,1.53
2022-12-20T18:42:41.717Z,1.30
2022-12-20T18:45:12.468Z,1.53
2022-12-20T18:47:41.151Z,1.47
2022-12-20T18:50:13.055Z,1.50
2022-12-20T18:52:44.023Z,1.50
2022-12-20T18:55:16.053Z,1.57
2022-12-20T18:57:44.834Z,1.57
2022-12-20T19:00:15.867Z,1.30
2022-12-20T19:02:44.850Z,1.60
2022-12-20T19:05:13.772Z,1.60
2022-12-20T19:07:42.542Z,1.70
2022-12-20T19:10:11.618Z,1.70
2022-12-20T19:12:40.278Z,1.80
2022-12-20T19:15:09.175Z,1.77
2022-12-20T19:17:39.132Z,1.90
2022-12-20T19:20:08.311Z,2.00
2022-12-20T19:22:36.900Z,2.00
2022-12-20T19:25:05.621Z,1.80
2022-12-20T19:27:34.200Z,1.93
2022-12-20T19:30:02.817Z,1.97
2022-12-20T19:32:31.441Z,2.00
2022-12-20T19:35:16.391Z,1.87
2022-12-20T19:37:50.021Z,2.00
2022-12-20T19:40:18.604Z,2.10
2022-12-20T19:42:47.299Z,2.00
2022-12-20T19:45:15.916Z,2.10
2022-12-20T19:47:44.631Z,2.10
2022-12-20T19:50:14.835Z,2.00
2022-12-20T19:52:43.460Z,1.93
2022-12-20T19:55:12.080Z,2.17
2022-12-20T19:57:40.719Z,2.20
2022-12-20T20:00:09.977Z,2.43
2022-12-20T20:02:38.827Z,2.20
2022-12-20T20:05:14.496Z,2.30
2022-12-20T20:07:45.132Z,2.43
2022-12-20T20:10:13.772Z,2.30
2022-12-20T20:12:42.321Z,2.30
2022-12-20T20:15:11.272Z,2.60
2022-12-20T20:17:39.872Z,2.60
2022-12-20T20:20:10.453Z,2.20
2022-12-20T20:22:39.189Z,2.50
2022-12-20T20:25:09.410Z,2.70
2022-12-20T20:27:38.061Z,2.50
2022-12-20T20:30:07.500Z,2.40
2022-12-20T20:32:36.086Z,2.20
2022-12-20T20:35:04.676Z,2.50
2022-12-20T20:37:34.252Z,2.20
2022-12-20T20:40:02.968Z,2.33
2022-12-20T20:42:32.864Z,2.00
2022-12-20T20:45:01.405Z,2.40
2022-12-20T20:47:29.973Z,2.30
2022-12-20T20:49:58.816Z,2.47
2022-12-20T20:52:28.159Z,2.37
2022-12-20T20:54:56.796Z,2.20
2022-12-20T20:57:25.477Z,2.13
2022-12-20T20:59:55.395Z,2.20
2022-12-20T21:02:24.555Z,2.07
2022-12-20T21:05:16.931Z,2.03
2022-12-20T21:07:41.938Z,1.90
2022-12-20T21:10:11.328Z,2.20
2022-12-20T21:12:40.048Z,2.70
2022-12-20T21:15:22.578Z,2.60
2022-12-20T21:17:52.095Z,2.37
2022-12-20T21:20:26.036Z,2.00
2022-12-20T21:22:55.220Z,2.00
2022-12-20T21:25:23.804Z,1.87
2022-12-20T21:27:52.410Z,2.20
2022-12-20T21:30:22.458Z,2.10
2022-12-20T21:32:51.316Z,2.00
2022-12-20T21:35:20.317Z,1.90
2022-12-20T21:37:48.874Z,2.17
2022-12-20T21:40:17.619Z,1.70
2022-12-20T21:42:46.526Z,1.73
2022-12-20T21:45:15.819Z,1.80
2022-12-20T21:47:45.800Z,1.90
2022-12-20T21:50:15.080Z,1.83
2022-12-20T21:52:43.695Z,1.90
2022-12-20T21:55:12.226Z,2.00
2022-12-20T21:57:41.074Z,1.70
2022-12-20T22:00:11.198Z,1.67
2022-12-20T22:02:39.943Z,1.83
2022-12-20T22:05:10.747Z,1.50
2022-12-20T22:07:39.315Z,1.47
2022-12-20T22:10:08.736Z,1.93
2022-12-20T22:12:37.330Z,2.00
2022-12-20T22:15:06.258Z,1.77
2022-12-20T22:17:34.837Z,1.63
2022-12-20T22:20:03.405Z,1.80
2022-12-20T22:22:33.353Z,2.00
2022-12-20T22:25:01.963Z,2.20
2022-12-20T22:27:30.565Z,2.33
2022-12-20T22:29:59.149Z,2.13
2022-12-20T22:32:27.679Z,2.07
2022-12-20T22:34:56.223Z,1.93
2022-12-20T22:37:24.852Z,2.17
2022-12-20T22:39:54.904Z,2.07
2022-12-20T22:42:23.522Z,2.00
2022-12-20T22:44:52.140Z,2.10
2022-12-20T22:47:20.808Z,1.80
2022-12-20T22:49:49.345Z,2.10
2022-12-20T22:52:17.948Z,2.10
2022-12-20T22:54:46.466Z,1.80
2022-12-20T22:57:16.399Z,1.90
2022-12-20T22:59:45.050Z,2.10
2022-12-20T23:02:13.808Z,1.90
2022-12-20T23:04:42.521Z,2.00
2022-12-20T23:07:11.101Z,1.90
2022-12-20T23:09:39.686Z,2.20
2022-12-20T23:12:26.165Z,2.00
2022-12-20T23:15:13.993Z,1.73
2022-12-20T23:17:42.605Z,1.77
2022-12-20T23:20:29.279Z,1.80
2022-12-20T23:22:57.820Z,1.90
2022-12-20T23:25:26.746Z,2.07
2022-12-20T23:27:55.761Z,2.17
2022-12-20T23:30:25.829Z,1.97
2022-12-20T23:32:56.070Z,2.07
2022-12-20T23:35:25.724Z,2.20
2022-12-20T23:37:54.369Z,2.37
2022-12-20T23:40:23.013Z,2.30
2022-12-20T23:42:54.406Z,2.27
2022-12-20T23:45:23.001Z,2.20
2022-12-20T23:47:52.919Z,2.03
2022-12-20T23:50:21.492Z,2.03
2022-12-20T23:52:50.083Z,2.17
2022-12-20T23:55:18.767Z,2.50
2022-12-20T23:57:47.327Z,2.60
